Latest Coastal Weather Observations for Adele Island

IDW60701

Issued at 1:02 am WST Wednesday 1 July 2015 (issued every 10 minutes, with the page automatically refreshed every 10 minutes)

About coastal observations | Map of coastal stations | Coastal observations for WA | Marine services | Other Formats
Station Details ID: 200735 Name: ADELE ISLAND Lat: -15.51 Lon: 123.16 Height: 4.6 m
Data from the previous 72 hours. | See also: Recent months for locations in Western Australia
Date/Time
WST
Temp

°C
Wind Pressure Rain
since 9am
mm
Weather Cloud Vis
km
Sea
Height
m
Swell
Dir
 
Speed
knots
Gust
knots
hPa Trend Height
m
Period
s
Dir
01/01:00am 25.6 S 7 8 1017.8 - - - - - - - - -
01/12:30am 26.0 S 8 9 1018.0 - - - - - - - - -
01/12:00am 25.4 S 7 8 1018.0 - - - - - - - - -
 
Date/Time
WST
Temp

°C
Wind Pressure Rain
since 9am
mm
Weather Cloud Vis
km
Sea
Height
m
Swell
Dir
 
Speed
knots
Gust
knots
hPa Trend Height
m
Period
s
Dir
30/11:30pm 24.3 S 8 10 1018.1 - - - - - - - - -
30/11:00pm 24.5 SSE 8 9 1018.1 - - - - - - - - -
30/10:30pm 24.5 SSE 9 10 1018.2 - - - - - - - - -
30/10:00pm 25.2 S 8 10 1018.3 - - - - - - - - -
30/09:30pm 26.0 S 7 7 1018.2 - - - - - - - - -
30/09:00pm 25.9 S 8 9 1018.2 - - - - - - - - -
30/08:30pm 25.3 SSE 8 8 1018.1 - - - - - - - - -
30/08:00pm 25.7 SSE 7 7 1018.0 - - - - - - - - -
30/07:30pm 25.6 SSE 6 7 1017.7 - - - - - - - - -
30/07:00pm 25.0 SSE 6 7 1017.4 - - - - - - - - -
30/06:30pm 25.0 SSE 6 7 1017.0 - - - - - - - - -
30/06:00pm 25.0 SSE 6 7 1016.7 - - - - - - - - -
30/05:30pm 25.0 SSE 6 7 1016.5 - - - - - - - - -
30/05:00pm 26.0 SSE 6 7 1016.3 - - - - - - - - -
30/04:30pm 26.8 SSE 7 9 1016.0 - - - - - - - - -
30/04:00pm 27.2 SE 7 9 1015.8 - - - - - - - - -
30/03:30pm 27.4 SE 7 9 1015.7 - - - - - - - - -
30/03:00pm 27.3 ESE 6 8 1015.8 - - - - - - - - -
30/02:30pm 27.5 SE 5 6 1015.8 - - - - - - - - -
30/02:00pm 28.2 E 4 7 1016.0 - - - - - - - - -
30/01:30pm 28.1 ESE 4 7 1016.3 - - - - - - - - -
30/01:00pm 27.5 NNE 4 6 1016.8 - - - - - - - - -
30/12:30pm 28.7 N 4 5 1017.1 - - - - - - - - -
30/12:00pm 27.8 NNE 5 6 1017.4 - - - - - - - - -
30/11:30am 27.9 N 5 7 1017.9 - - - - - - - - -
30/11:00am 28.0 N 6 7 1018.4 - - - - - - - - -
30/10:30am 27.7 NNE 6 8 1018.6 - - - - - - - - -
30/10:00am 27.5 NNE 7 9 1018.8 - - - - - - - - -
30/09:30am 27.5 NNE 7 8 1018.8 - - - - - - - - -
30/09:00am 27.2 NE 8 9 1018.7 - - - - - - - - -
30/08:30am 26.8 NE 9 11 1018.6 - - - - - - - - -
30/08:00am 26.4 ENE 9 11 1018.3 - - - - - - - - -
30/07:30am 26.2 ENE 8 11 1018.1 - - - - - - - - -
30/07:00am 25.7 E 10 12 1017.7 - - - - - - - - -
30/06:30am 24.9 ESE 8 9 1017.3 - - - - - - - - -
30/06:00am 23.7 ESE 8 9 1017.1 - - - - - - - - -
30/05:30am 23.3 SE 8 9 1016.8 - - - - - - - - -
30/05:00am 22.8 SSE 9 11 1016.4 - - - - - - - - -
30/04:30am 22.9 SSE 10 11 1016.4 - - - - - - - - -
30/04:00am 23.4 SSE 9 10 1016.4 - - - - - - - - -
30/03:30am 22.8 - - - 1016.5 - - - - - - - - -
30/03:00am 23.0 S 9 10 1016.6 - - - - - - - - -
30/02:30am 23.2 SSE 10 11 1016.8 - - - - - - - - -
30/02:00am 24.1 S 9 11 1017.0 - - - - - - - - -
30/01:30am 25.1 S 9 10 1017.2 - - - - - - - - -
30/01:00am 25.3 S 6 7 1017.4 - - - - - - - - -
30/12:30am 25.4 SSE 5 5 1017.5 - - - - - - - - -
30/12:00am 25.3 SSE 5 6 1017.6 - - - - - - - - -
 
Date/Time
WST
Temp

°C
Wind Pressure Rain
since 9am
mm
Weather Cloud Vis
km
Sea
Height
m
Swell
Dir
 
Speed
knots
Gust
knots
hPa Trend Height
m
Period
s
Dir
29/11:30pm 25.4 S 5 6 1017.6 - - - - - - - - -
29/11:00pm 25.4 S 4 5 1017.7 - - - - - - - - -
29/10:30pm 25.5 S 5 6 1017.7 - - - - - - - - -
29/10:00pm 25.6 SSW 6 7 1017.9 - - - - - - - - -
29/09:30pm 25.9 ESE 5 6 1017.9 - - - - - - - - -
29/09:00pm 25.6 E 5 6 1018.0 - - - - - - - - -
29/08:30pm 25.1 NNE 4 6 1017.9 - - - - - - - - -
29/08:00pm 26.0 CALM 0 3 1017.7 - - - - - - - - -
29/07:30pm 26.2 NNE 6 8 1017.3 - - - - - - - - -
29/07:00pm 26.0 NE 6 6 1017.1 - - - - - - - - -
29/06:30pm 25.9 NE 6 7 1017.0 - - - - - - - - -
29/06:00pm 25.9 NE 5 7 1016.8 - - - - - - - - -
29/05:30pm 25.9 ENE 5 5 1016.5 - - - - - - - - -
29/05:00pm 26.1 ENE 6 7 1016.3 - - - - - - - - -
29/04:30pm 26.1 ENE 7 8 1016.0 - - - - - - - - -
29/04:00pm 26.5 NE 7 10 1015.9 - - - - - - - - -
29/03:30pm 26.6 ENE 8 10 1015.8 - - - - - - - - -
29/03:00pm 26.7 ENE 9 13 1015.7 - - - - - - - - -
29/02:30pm 27.1 ENE 8 11 1015.8 - - - - - - - - -
29/02:00pm 26.3 NE 8 11 1016.1 - - - - - - - - -
29/01:30pm 26.7 ENE 8 11 1016.4 - - - - - - - - -
29/01:00pm 26.9 ENE 8 10 1016.8 - - - - - - - - -
29/12:30pm 27.0 ENE 8 11 1017.2 - - - - - - - - -
29/12:00pm 27.2 E 9 11 1017.6 - - - - - - - - -
29/11:30am 26.7 E 10 12 1018.0 - - - - - - - - -
29/11:00am 27.4 E 11 13 1018.3 - - - - - - - - -
29/10:30am 27.0 ESE 12 15 1018.6 - - - - - - - - -
29/10:00am 27.0 SE 11 15 1018.7 - - - - - - - - -
29/09:30am 26.1 ESE 11 15 1019.0 - - - - - - - - -
29/09:00am 25.8 ESE 11 15 1018.9 - - - - - - - - -
29/08:30am 25.6 SE 10 13 1018.9 - - - - - - - - -
29/08:00am 25.0 SE 10 13 1018.8 - - - - - - - - -
29/07:30am 24.4 SSE 9 12 1018.5 - - - - - - - - -
29/07:00am 23.0 S 8 10 1018.2 - - - - - - - - -
29/06:30am 22.5 S 9 11 1018.1 - - - - - - - - -
29/06:00am 22.9 S 10 11 1018.0 - - - - - - - - -
29/05:30am 22.9 S 10 11 1017.8 - - - - - - - - -
29/05:00am 22.6 SSE 9 11 1017.7 - - - - - - - - -
29/04:30am 22.4 SSE 9 9 1017.6 - - - - - - - - -
29/04:00am 23.0 S 9 11 1017.7 - - - - - - - - -
29/03:30am 22.7 S 10 11 1017.6 - - - - - - - - -
29/03:00am 23.2 SSE 9 9 1017.7 - - - - - - - - -
29/02:30am 24.1 SSE 8 9 1017.8 - - - - - - - - -
29/02:00am 23.5 S 7 8 1017.8 - - - - - - - - -
29/01:30am 24.8 SSE 5 6 1017.9 - - - - - - - - -
29/01:00am 25.0 SSE 5 6 1018.1 - - - - - - - - -
29/12:30am 24.9 SE 4 5 1018.4 - - - - - - - - -
29/12:00am 24.8 SE 3 4 1018.6 - - - - - - - - -
 
Date/Time
WST
Temp

°C
Wind Pressure Rain
since 9am
mm
Weather Cloud Vis
km
Sea
Height
m
Swell
Dir
 
Speed
knots
Gust
knots
hPa Trend Height
m
Period
s
Dir
28/11:30pm 25.0 SE 4 5 1018.8 - - - - - - - - -
28/11:00pm 24.1 CALM 0 0 1018.8 - - - - - - - - -
28/10:30pm 23.7 ESE 1 5 1018.8 - - - - - - - - -
28/10:00pm 24.7 CALM 0 0 1018.8 - - - - - - - - -
28/09:30pm 24.7 CALM 0 0 1018.8 - - - - - - - - -
28/09:00pm 24.9 CALM 0 0 1018.7 - - - - - - - - -
28/08:30pm 25.0 CALM 0 0 1018.7 - - - - - - - - -
28/08:00pm 24.9 CALM 0 2 1018.5 - - - - - - - - -
28/07:30pm 25.1 CALM 0 3 1018.3 - - - - - - - - -
28/07:00pm 25.1 CALM 0 0 1018.0 - - - - - - - - -
28/06:30pm 25.2 CALM 0 1 1017.6 - - - - - - - - -
28/06:00pm 24.8 CALM 0 3 1017.2 - - - - - - - - -
28/05:30pm 25.6 NE 3 4 1017.0 - - - - - - - - -
28/05:00pm 26.1 NE 3 4 1016.9 - - - - - - - - -
28/04:30pm 26.4 NE 2 4 1016.8 - - - - - - - - -
28/04:00pm 26.6 NNE 4 5 1016.7 - - - - - - - - -
28/03:30pm 27.0 N 3 5 1016.9 - - - - - - - - -
28/03:00pm 27.0 N 4 5 1017.0 - - - - - - - - -
28/02:30pm 26.7 N 5 6 1017.1 - - - - - - - - -
28/02:00pm 27.0 NNE 5 7 1017.1 - - - - - - - - -
28/01:30pm 26.7 N 6 8 1017.2 - - - - - - - - -
28/01:00pm 27.2 NNE 7 9 1017.6 - - - - - - - - -
28/12:30pm 26.5 N 8 9 1018.0 - - - - - - - - -
28/12:00pm 26.6 NE 8 13 1018.4 - - - - - - - - -
28/11:30am 26.3 NE 10 12 1018.8 - - - - - - - - -
28/11:00am 26.6 NE 8 10 1019.2 - - - - - - - - -
28/10:30am 26.3 ENE 8 10 1019.4 - - - - - - - - -
28/10:00am 26.4 ENE 9 12 1019.7 - - - - - - - - -
28/09:30am 25.9 E 10 13 1019.9 - - - - - - - - -
28/09:00am 26.0 E 10 13 1019.9 - - - - - - - - -
28/08:30am 25.8 E 11 14 1019.8 - - - - - - - - -
28/08:00am 25.8 E 10 14 1019.6 - - - - - - - - -
28/07:30am 25.3 E 10 13 1019.2 - - - - - - - - -
28/07:00am 24.3 ESE 10 13 1019.0 - - - - - - - - -
28/06:30am 22.7 SE 9 10 1018.8 - - - - - - - - -
28/06:00am 22.4 SSE 9 10 1018.4 - - - - - - - - -
28/05:30am 22.5 SE 9 10 1018.2 - - - - - - - - -
28/05:00am 22.5 SSE 9 9 1018.0 - - - - - - - - -
28/04:30am 22.6 SSE 8 9 1018.0 - - - - - - - - -
28/04:00am 22.0 SSE 8 9 1018.1 - - - - - - - - -
28/03:30am 22.5 S 10 11 1018.1 - - - - - - - - -
28/03:00am 23.0 S 10 14 1018.1 - - - - - - - - -
28/02:30am 22.5 S 8 9 1018.3 - - - - - - - - -
28/02:00am 23.3 S 9 11 1018.6 - - - - - - - - -
28/01:30am 23.5 S 7 8 1018.8 - - - - - - - - -

Other Formats:

Comma delimited format used in spreadsheet applications
http://www.bom.gov.au/fwo/IDW60701/IDW60701.94210.axf

JavaScript Object Notation format (JSON) in row-major order
http://www.bom.gov.au/fwo/IDW60701/IDW60701.94210.json